sensor_id;sensor_type;location;lat;lon;timestamp;P1;durP1;ratioP1;P2;durP2;ratioP2
21987;SDS011;11158;53.404;-1.510;2024-03-22T00:01:43;2.50;;;1.65;;
21987;SDS011;11158;53.404;-1.510;2024-03-22T00:04:09;4.40;;;2.17;;
21987;SDS011;11158;53.404;-1.510;2024-03-22T00:06:34;4.95;;;1.75;;
21987;SDS011;11158;53.404;-1.510;2024-03-22T00:09:00;3.88;;;1.98;;
21987;SDS011;11158;53.404;-1.510;2024-03-22T00:11:25;3.72;;;1.48;;
21987;SDS011;11158;53.404;-1.510;2024-03-22T00:13:51;2.55;;;1.60;;
21987;SDS011;11158;53.404;-1.510;2024-03-22T00:16:16;1.77;;;1.42;;
21987;SDS011;11158;53.404;-1.510;2024-03-22T00:18:41;2.72;;;1.45;;
21987;SDS011;11158;53.404;-1.510;2024-03-22T00:21:07;1.25;;;1.10;;
21987;SDS011;11158;53.404;-1.510;2024-03-22T00:23:32;2.28;;;1.35;;
21987;SDS011;11158;53.404;-1.510;2024-03-22T00:25:57;2.92;;;2.20;;
21987;SDS011;11158;53.404;-1.510;2024-03-22T00:28:23;2.60;;;2.22;;
21987;SDS011;11158;53.404;-1.510;2024-03-22T00:30:48;4.65;;;3.10;;
21987;SDS011;11158;53.404;-1.510;2024-03-22T00:33:14;2.60;;;2.38;;
21987;SDS011;11158;53.404;-1.510;2024-03-22T00:35:39;4.82;;;2.80;;
21987;SDS011;11158;53.404;-1.510;2024-03-22T00:38:04;3.60;;;3.30;;
21987;SDS011;11158;53.404;-1.510;2024-03-22T00:40:30;4.25;;;3.58;;
21987;SDS011;11158;53.404;-1.510;2024-03-22T00:42:55;4.50;;;3.95;;
21987;SDS011;11158;53.404;-1.510;2024-03-22T00:45:20;6.38;;;4.25;;
21987;SDS011;11158;53.404;-1.510;2024-03-22T00:47:46;6.45;;;5.22;;
21987;SDS011;11158;53.404;-1.510;2024-03-22T00:50:11;5.40;;;4.82;;
21987;SDS011;11158;53.404;-1.510;2024-03-22T00:52:37;4.72;;;4.15;;
21987;SDS011;11158;53.404;-1.510;2024-03-22T00:55:03;5.72;;;4.50;;
21987;SDS011;11158;53.404;-1.510;2024-03-22T00:57:29;4.72;;;3.95;;
21987;SDS011;11158;53.404;-1.510;2024-03-22T00:59:54;3.70;;;3.30;;
21987;SDS011;11158;53.404;-1.510;2024-03-22T01:02:19;4.28;;;3.15;;
21987;SDS011;11158;53.404;-1.510;2024-03-22T01:04:45;2.70;;;2.40;;
21987;SDS011;11158;53.404;-1.510;2024-03-22T01:07:10;1.55;;;1.35;;
21987;SDS011;11158;53.404;-1.510;2024-03-22T01:09:36;0.80;;;0.80;;
21987;SDS011;11158;53.404;-1.510;2024-03-22T01:12:01;1.00;;;0.90;;
21987;SDS011;11158;53.404;-1.510;2024-03-22T01:14:26;0.88;;;0.70;;
21987;SDS011;11158;53.404;-1.510;2024-03-22T01:16:52;4.80;;;0.60;;
21987;SDS011;11158;53.404;-1.510;2024-03-22T01:19:17;1.27;;;0.50;;
21987;SDS011;11158;53.404;-1.510;2024-03-22T01:21:42;0.50;;;0.50;;
21987;SDS011;11158;53.404;-1.510;2024-03-22T01:24:08;0.70;;;0.70;;
21987;SDS011;11158;53.404;-1.510;2024-03-22T01:26:33;0.98;;;0.80;;
21987;SDS011;11158;53.404;-1.510;2024-03-22T01:28:59;0.90;;;0.90;;
21987;SDS011;11158;53.404;-1.510;2024-03-22T01:31:24;0.73;;;0.68;;
21987;SDS011;11158;53.404;-1.510;2024-03-22T01:33:49;0.60;;;0.60;;
21987;SDS011;11158;53.404;-1.510;2024-03-22T01:36:15;0.40;;;0.40;;
21987;SDS011;11158;53.404;-1.510;2024-03-22T01:38:40;0.30;;;0.30;;
21987;SDS011;11158;53.404;-1.510;2024-03-22T01:41:06;0.20;;;0.20;;
21987;SDS011;11158;53.404;-1.510;2024-03-22T01:43:32;0.15;;;0.15;;
21987;SDS011;11158;53.404;-1.510;2024-03-22T01:45:57;0.15;;;0.15;;
21987;SDS011;11158;53.404;-1.510;2024-03-22T01:48:23;0.40;;;0.20;;
21987;SDS011;11158;53.404;-1.510;2024-03-22T01:50:48;0.28;;;0.10;;
21987;SDS011;11158;53.404;-1.510;2024-03-22T01:53:15;0.10;;;0.00;;
21987;SDS011;11158;53.404;-1.510;2024-03-22T01:55:40;0.10;;;0.10;;
21987;SDS011;11158;53.404;-1.510;2024-03-22T01:58:06;0.68;;;0.10;;
21987;SDS011;11158;53.404;-1.510;2024-03-22T02:00:31;1.00;;;0.10;;
21987;SDS011;11158;53.404;-1.510;2024-03-22T02:02:57;0.10;;;0.10;;
21987;SDS011;11158;53.404;-1.510;2024-03-22T02:05:22;0.10;;;0.10;;
21987;SDS011;11158;53.404;-1.510;2024-03-22T02:07:49;2.33;;;0.15;;
21987;SDS011;11158;53.404;-1.510;2024-03-22T02:10:14;1.27;;;0.10;;
21987;SDS011;11158;53.404;-1.510;2024-03-22T02:12:41;0.20;;;0.10;;
21987;SDS011;11158;53.404;-1.510;2024-03-22T02:15:07;0.50;;;0.17;;
21987;SDS011;11158;53.404;-1.510;2024-03-22T02:17:33;0.00;;;0.00;;
21987;SDS011;11158;53.404;-1.510;2024-03-22T02:20:00;0.10;;;0.10;;
21987;SDS011;11158;53.404;-1.510;2024-03-22T02:22:26;0.05;;;0.05;;
21987;SDS011;11158;53.404;-1.510;2024-03-22T02:24:52;0.17;;;0.10;;
21987;SDS011;11158;53.404;-1.510;2024-03-22T02:27:17;0.95;;;0.17;;
21987;SDS011;11158;53.404;-1.510;2024-03-22T02:29:43;0.40;;;0.20;;
21987;SDS011;11158;53.404;-1.510;2024-03-22T02:32:09;0.25;;;0.10;;
21987;SDS011;11158;53.404;-1.510;2024-03-22T02:34:35;0.60;;;0.30;;
21987;SDS011;11158;53.404;-1.510;2024-03-22T02:37:01;0.57;;;0.10;;
21987;SDS011;11158;53.404;-1.510;2024-03-22T02:39:26;0.47;;;0.10;;
21987;SDS011;11158;53.404;-1.510;2024-03-22T02:41:52;1.73;;;0.30;;
21987;SDS011;11158;53.404;-1.510;2024-03-22T02:44:17;0.25;;;0.20;;
21987;SDS011;11158;53.404;-1.510;2024-03-22T02:46:42;0.70;;;0.20;;
21987;SDS011;11158;53.404;-1.510;2024-03-22T02:49:08;1.00;;;0.22;;
21987;SDS011;11158;53.404;-1.510;2024-03-22T02:51:33;1.95;;;0.40;;
21987;SDS011;11158;53.404;-1.510;2024-03-22T02:53:59;1.38;;;0.43;;
21987;SDS011;11158;53.404;-1.510;2024-03-22T02:56:24;1.65;;;0.30;;
21987;SDS011;11158;53.404;-1.510;2024-03-22T02:58:49;2.38;;;0.47;;
21987;SDS011;11158;53.404;-1.510;2024-03-22T03:01:15;0.70;;;0.30;;
21987;SDS011;11158;53.404;-1.510;2024-03-22T03:03:40;3.40;;;0.50;;
21987;SDS011;11158;53.404;-1.510;2024-03-22T03:06:06;1.92;;;0.50;;
21987;SDS011;11158;53.404;-1.510;2024-03-22T03:08:31;3.40;;;0.38;;
21987;SDS011;11158;53.404;-1.510;2024-03-22T03:10:56;0.85;;;0.32;;
21987;SDS011;11158;53.404;-1.510;2024-03-22T03:13:22;2.60;;;0.63;;
21987;SDS011;11158;53.404;-1.510;2024-03-22T03:15:47;3.53;;;0.75;;
21987;SDS011;11158;53.404;-1.510;2024-03-22T03:18:13;2.47;;;0.70;;
21987;SDS011;11158;53.404;-1.510;2024-03-22T03:20:38;3.88;;;0.75;;
21987;SDS011;11158;53.404;-1.510;2024-03-22T03:23:03;5.35;;;0.68;;
21987;SDS011;11158;53.404;-1.510;2024-03-22T03:25:29;2.55;;;0.68;;
21987;SDS011;11158;53.404;-1.510;2024-03-22T03:27:54;3.72;;;0.70;;
21987;SDS011;11158;53.404;-1.510;2024-03-22T03:30:20;3.63;;;0.90;;
21987;SDS011;11158;53.404;-1.510;2024-03-22T03:32:45;4.90;;;0.70;;
21987;SDS011;11158;53.404;-1.510;2024-03-22T03:35:10;2.30;;;0.80;;
21987;SDS011;11158;53.404;-1.510;2024-03-22T03:37:36;6.75;;;1.33;;
21987;SDS011;11158;53.404;-1.510;2024-03-22T03:40:01;7.25;;;1.17;;
21987;SDS011;11158;53.404;-1.510;2024-03-22T03:42:27;6.38;;;0.95;;
21987;SDS011;11158;53.404;-1.510;2024-03-22T03:44:52;8.13;;;1.63;;
21987;SDS011;11158;53.404;-1.510;2024-03-22T03:47:18;11.70;;;1.20;;
21987;SDS011;11158;53.404;-1.510;2024-03-22T03:49:45;8.45;;;1.27;;
21987;SDS011;11158;53.404;-1.510;2024-03-22T03:52:10;6.72;;;1.00;;
21987;SDS011;11158;53.404;-1.510;2024-03-22T03:54:36;8.07;;;1.67;;
21987;SDS011;11158;53.404;-1.510;2024-03-22T03:57:01;12.50;;;1.60;;
21987;SDS011;11158;53.404;-1.510;2024-03-22T03:59:27;10.15;;;2.20;;
21987;SDS011;11158;53.404;-1.510;2024-03-22T04:01:52;8.70;;;1.83;;
21987;SDS011;11158;53.404;-1.510;2024-03-22T04:04:17;15.30;;;1.75;;
21987;SDS011;11158;53.404;-1.510;2024-03-22T04:06:46;9.55;;;1.60;;
21987;SDS011;11158;53.404;-1.510;2024-03-22T04:09:11;11.18;;;1.58;;
21987;SDS011;11158;53.404;-1.510;2024-03-22T04:11:37;5.60;;;1.38;;
21987;SDS011;11158;53.404;-1.510;2024-03-22T04:14:03;15.07;;;2.05;;
21987;SDS011;11158;53.404;-1.510;2024-03-22T04:16:29;14.57;;;1.77;;
21987;SDS011;11158;53.404;-1.510;2024-03-22T04:18:54;17.90;;;1.92;;
21987;SDS011;11158;53.404;-1.510;2024-03-22T04:21:19;16.48;;;1.73;;
21987;SDS011;11158;53.404;-1.510;2024-03-22T04:23:45;11.70;;;1.80;;
21987;SDS011;11158;53.404;-1.510;2024-03-22T04:26:10;13.48;;;1.92;;
21987;SDS011;11158;53.404;-1.510;2024-03-22T04:28:37;18.70;;;1.95;;
21987;SDS011;11158;53.404;-1.510;2024-03-22T04:31:07;20.75;;;1.95;;
21987;SDS011;11158;53.404;-1.510;2024-03-22T04:33:34;12.02;;;2.33;;
21987;SDS011;11158;53.404;-1.510;2024-03-22T04:36:00;10.82;;;1.88;;
21987;SDS011;11158;53.404;-1.510;2024-03-22T04:38:27;14.00;;;1.70;;
21987;SDS011;11158;53.404;-1.510;2024-03-22T04:40:53;14.65;;;2.00;;
21987;SDS011;11158;53.404;-1.510;2024-03-22T04:43:19;18.23;;;2.17;;
21987;SDS011;11158;53.404;-1.510;2024-03-22T04:45:45;11.07;;;2.00;;
21987;SDS011;11158;53.404;-1.510;2024-03-22T04:48:16;13.93;;;2.50;;
21987;SDS011;11158;53.404;-1.510;2024-03-22T04:50:42;17.58;;;2.45;;
21987;SDS011;11158;53.404;-1.510;2024-03-22T04:53:08;17.02;;;2.03;;
21987;SDS011;11158;53.404;-1.510;2024-03-22T04:55:34;18.73;;;2.58;;
21987;SDS011;11158;53.404;-1.510;2024-03-22T04:57:59;17.15;;;2.70;;
21987;SDS011;11158;53.404;-1.510;2024-03-22T05:00:25;21.92;;;2.67;;
21987;SDS011;11158;53.404;-1.510;2024-03-22T05:02:51;22.83;;;3.35;;
21987;SDS011;11158;53.404;-1.510;2024-03-22T05:05:17;18.05;;;3.05;;
21987;SDS011;11158;53.404;-1.510;2024-03-22T05:07:43;16.92;;;2.47;;
21987;SDS011;11158;53.404;-1.510;2024-03-22T05:10:08;15.27;;;2.95;;
21987;SDS011;11158;53.404;-1.510;2024-03-22T05:12:35;18.40;;;2.20;;
21987;SDS011;11158;53.404;-1.510;2024-03-22T05:15:02;20.83;;;2.70;;
21987;SDS011;11158;53.404;-1.510;2024-03-22T05:17:28;31.10;;;3.60;;
21987;SDS011;11158;53.404;-1.510;2024-03-22T05:19:54;23.27;;;2.65;;
21987;SDS011;11158;53.404;-1.510;2024-03-22T05:22:20;17.30;;;2.20;;
21987;SDS011;11158;53.404;-1.510;2024-03-22T05:24:46;18.80;;;2.72;;
21987;SDS011;11158;53.404;-1.510;2024-03-22T05:27:11;16.77;;;2.63;;
21987;SDS011;11158;53.404;-1.510;2024-03-22T05:29:37;14.57;;;2.33;;
21987;SDS011;11158;53.404;-1.510;2024-03-22T05:32:03;18.13;;;2.70;;
21987;SDS011;11158;53.404;-1.510;2024-03-22T05:34:29;18.27;;;3.05;;
21987;SDS011;11158;53.404;-1.510;2024-03-22T05:36:55;21.17;;;2.70;;
21987;SDS011;11158;53.404;-1.510;2024-03-22T05:39:20;26.50;;;3.55;;
21987;SDS011;11158;53.404;-1.510;2024-03-22T05:41:45;24.42;;;3.10;;
21987;SDS011;11158;53.404;-1.510;2024-03-22T05:44:11;29.05;;;3.45;;
21987;SDS011;11158;53.404;-1.510;2024-03-22T05:46:36;20.48;;;2.65;;
21987;SDS011;11158;53.404;-1.510;2024-03-22T05:49:02;23.85;;;2.58;;
21987;SDS011;11158;53.404;-1.510;2024-03-22T05:51:28;20.30;;;2.58;;
21987;SDS011;11158;53.404;-1.510;2024-03-22T05:53:55;25.38;;;2.83;;
21987;SDS011;11158;53.404;-1.510;2024-03-22T05:56:21;24.25;;;3.90;;
21987;SDS011;11158;53.404;-1.510;2024-03-22T05:58:46;20.13;;;2.63;;
21987;SDS011;11158;53.404;-1.510;2024-03-22T06:01:12;17.88;;;2.08;;
21987;SDS011;11158;53.404;-1.510;2024-03-22T06:03:37;13.50;;;2.22;;
21987;SDS011;11158;53.404;-1.510;2024-03-22T06:06:03;17.63;;;3.03;;
21987;SDS011;11158;53.404;-1.510;2024-03-22T06:08:28;23.70;;;4.18;;
21987;SDS011;11158;53.404;-1.510;2024-03-22T06:10:56;26.23;;;2.33;;
21987;SDS011;11158;53.404;-1.510;2024-03-22T06:13:21;19.95;;;3.65;;
21987;SDS011;11158;53.404;-1.510;2024-03-22T06:15:50;23.20;;;2.92;;
21987;SDS011;11158;53.404;-1.510;2024-03-22T06:18:16;14.02;;;2.60;;
21987;SDS011;11158;53.404;-1.510;2024-03-22T06:20:41;20.17;;;3.38;;
21987;SDS011;11158;53.404;-1.510;2024-03-22T06:23:07;23.67;;;2.78;;
21987;SDS011;11158;53.404;-1.510;2024-03-22T06:25:33;14.55;;;2.60;;
21987;SDS011;11158;53.404;-1.510;2024-03-22T06:27:59;19.15;;;2.97;;
21987;SDS011;11158;53.404;-1.510;2024-03-22T06:30:24;22.05;;;3.00;;
21987;SDS011;11158;53.404;-1.510;2024-03-22T06:32:50;26.30;;;3.25;;
21987;SDS011;11158;53.404;-1.510;2024-03-22T06:35:17;27.02;;;2.92;;
21987;SDS011;11158;53.404;-1.510;2024-03-22T06:37:42;27.63;;;2.65;;
21987;SDS011;11158;53.404;-1.510;2024-03-22T06:40:07;27.90;;;2.95;;
21987;SDS011;11158;53.404;-1.510;2024-03-22T06:42:33;23.55;;;2.83;;
21987;SDS011;11158;53.404;-1.510;2024-03-22T06:44:58;28.13;;;3.10;;
21987;SDS011;11158;53.404;-1.510;2024-03-22T06:47:24;21.42;;;2.83;;
21987;SDS011;11158;53.404;-1.510;2024-03-22T06:49:49;20.35;;;2.17;;
21987;SDS011;11158;53.404;-1.510;2024-03-22T06:52:15;28.13;;;4.15;;
21987;SDS011;11158;53.404;-1.510;2024-03-22T06:54:40;21.20;;;2.47;;
21987;SDS011;11158;53.404;-1.510;2024-03-22T06:57:06;23.08;;;3.03;;
21987;SDS011;11158;53.404;-1.510;2024-03-22T06:59:32;23.75;;;3.08;;
21987;SDS011;11158;53.404;-1.510;2024-03-22T07:01:57;24.80;;;2.95;;
21987;SDS011;11158;53.404;-1.510;2024-03-22T07:04:22;19.02;;;2.63;;
21987;SDS011;11158;53.404;-1.510;2024-03-22T07:06:48;21.00;;;2.35;;
21987;SDS011;11158;53.404;-1.510;2024-03-22T07:09:13;14.70;;;2.70;;
21987;SDS011;11158;53.404;-1.510;2024-03-22T07:11:39;16.90;;;2.80;;
21987;SDS011;11158;53.404;-1.510;2024-03-22T07:14:05;26.15;;;2.97;;
21987;SDS011;11158;53.404;-1.510;2024-03-22T07:16:30;23.20;;;2.40;;
21987;SDS011;11158;53.404;-1.510;2024-03-22T07:18:55;20.23;;;2.50;;
21987;SDS011;11158;53.404;-1.510;2024-03-22T07:21:21;22.75;;;3.13;;
21987;SDS011;11158;53.404;-1.510;2024-03-22T07:23:46;16.05;;;2.47;;
21987;SDS011;11158;53.404;-1.510;2024-03-22T07:26:12;13.73;;;2.75;;
21987;SDS011;11158;53.404;-1.510;2024-03-22T07:28:37;23.88;;;3.17;;
21987;SDS011;11158;53.404;-1.510;2024-03-22T07:31:02;18.98;;;3.15;;
21987;SDS011;11158;53.404;-1.510;2024-03-22T07:33:28;21.13;;;2.95;;
21987;SDS011;11158;53.404;-1.510;2024-03-22T07:35:53;32.90;;;2.92;;
21987;SDS011;11158;53.404;-1.510;2024-03-22T07:38:19;20.65;;;2.80;;
21987;SDS011;11158;53.404;-1.510;2024-03-22T07:40:45;18.95;;;2.38;;
21987;SDS011;11158;53.404;-1.510;2024-03-22T07:43:11;26.83;;;2.17;;
21987;SDS011;11158;53.404;-1.510;2024-03-22T07:45:38;21.52;;;2.50;;
21987;SDS011;11158;53.404;-1.510;2024-03-22T07:48:04;12.07;;;2.13;;
21987;SDS011;11158;53.404;-1.510;2024-03-22T07:50:29;17.63;;;2.85;;
21987;SDS011;11158;53.404;-1.510;2024-03-22T07:52:55;27.00;;;2.70;;
21987;SDS011;11158;53.404;-1.510;2024-03-22T07:55:21;13.48;;;2.28;;
21987;SDS011;11158;53.404;-1.510;2024-03-22T07:57:48;12.73;;;2.03;;
21987;SDS011;11158;53.404;-1.510;2024-03-22T08:00:13;19.88;;;2.30;;
21987;SDS011;11158;53.404;-1.510;2024-03-22T08:02:39;14.90;;;2.70;;
21987;SDS011;11158;53.404;-1.510;2024-03-22T08:05:05;9.65;;;1.75;;
21987;SDS011;11158;53.404;-1.510;2024-03-22T08:07:31;23.27;;;2.88;;
21987;SDS011;11158;53.404;-1.510;2024-03-22T08:09:57;17.88;;;2.08;;
21987;SDS011;11158;53.404;-1.510;2024-03-22T08:12:23;17.85;;;2.65;;
21987;SDS011;11158;53.404;-1.510;2024-03-22T08:14:49;14.15;;;2.08;;
21987;SDS011;11158;53.404;-1.510;2024-03-22T08:17:15;26.35;;;3.03;;
21987;SDS011;11158;53.404;-1.510;2024-03-22T08:19:41;20.08;;;2.67;;
21987;SDS011;11158;53.404;-1.510;2024-03-22T08:22:07;18.58;;;2.25;;
21987;SDS011;11158;53.404;-1.510;2024-03-22T08:24:32;18.23;;;2.10;;
21987;SDS011;11158;53.404;-1.510;2024-03-22T08:26:58;23.50;;;3.03;;
21987;SDS011;11158;53.404;-1.510;2024-03-22T08:29:24;16.65;;;3.28;;
21987;SDS011;11158;53.404;-1.510;2024-03-22T08:31:49;16.38;;;2.10;;
21987;SDS011;11158;53.404;-1.510;2024-03-22T08:34:15;26.52;;;3.42;;
21987;SDS011;11158;53.404;-1.510;2024-03-22T08:36:40;16.90;;;2.08;;
21987;SDS011;11158;53.404;-1.510;2024-03-22T08:39:05;22.67;;;2.70;;
21987;SDS011;11158;53.404;-1.510;2024-03-22T08:41:35;16.60;;;2.22;;
21987;SDS011;11158;53.404;-1.510;2024-03-22T08:44:00;17.75;;;2.25;;
21987;SDS011;11158;53.404;-1.510;2024-03-22T08:46:25;15.00;;;2.38;;
21987;SDS011;11158;53.404;-1.510;2024-03-22T08:48:53;16.55;;;1.75;;
21987;SDS011;11158;53.404;-1.510;2024-03-22T08:51:18;21.77;;;2.75;;
21987;SDS011;11158;53.404;-1.510;2024-03-22T08:53:44;11.23;;;2.15;;
21987;SDS011;11158;53.404;-1.510;2024-03-22T08:56:09;17.30;;;2.08;;
21987;SDS011;11158;53.404;-1.510;2024-03-22T08:58:36;16.70;;;1.92;;
21987;SDS011;11158;53.404;-1.510;2024-03-22T09:01:01;11.05;;;1.75;;
21987;SDS011;11158;53.404;-1.510;2024-03-22T09:03:26;22.30;;;2.38;;
21987;SDS011;11158;53.404;-1.510;2024-03-22T09:05:52;16.55;;;2.20;;
21987;SDS011;11158;53.404;-1.510;2024-03-22T09:08:19;15.50;;;2.38;;
21987;SDS011;11158;53.404;-1.510;2024-03-22T09:10:46;17.05;;;2.05;;
21987;SDS011;11158;53.404;-1.510;2024-03-22T09:13:12;17.33;;;2.13;;
21987;SDS011;11158;53.404;-1.510;2024-03-22T09:15:38;14.45;;;1.80;;
21987;SDS011;11158;53.404;-1.510;2024-03-22T09:18:03;21.27;;;2.22;;
21987;SDS011;11158;53.404;-1.510;2024-03-22T09:20:29;19.13;;;2.50;;
21987;SDS011;11158;53.404;-1.510;2024-03-22T09:22:54;18.33;;;2.25;;
21987;SDS011;11158;53.404;-1.510;2024-03-22T09:25:20;17.00;;;1.50;;
21987;SDS011;11158;53.404;-1.510;2024-03-22T09:27:46;13.95;;;1.70;;
21987;SDS011;11158;53.404;-1.510;2024-03-22T09:30:11;11.15;;;1.80;;
21987;SDS011;11158;53.404;-1.510;2024-03-22T09:32:37;11.23;;;2.15;;
21987;SDS011;11158;53.404;-1.510;2024-03-22T09:35:03;16.52;;;1.88;;
21987;SDS011;11158;53.404;-1.510;2024-03-22T09:37:29;14.30;;;1.80;;
21987;SDS011;11158;53.404;-1.510;2024-03-22T09:39:54;15.07;;;1.52;;
21987;SDS011;11158;53.404;-1.510;2024-03-22T09:42:19;12.02;;;1.60;;
21987;SDS011;11158;53.404;-1.510;2024-03-22T09:44:48;15.52;;;1.92;;
21987;SDS011;11158;53.404;-1.510;2024-03-22T09:47:15;16.70;;;2.30;;
21987;SDS011;11158;53.404;-1.510;2024-03-22T09:49:42;16.60;;;2.05;;
21987;SDS011;11158;53.404;-1.510;2024-03-22T09:52:14;15.80;;;1.88;;
21987;SDS011;11158;53.404;-1.510;2024-03-22T09:54:42;12.30;;;2.05;;
21987;SDS011;11158;53.404;-1.510;2024-03-22T09:57:09;12.52;;;1.35;;
21987;SDS011;11158;53.404;-1.510;2024-03-22T09:59:38;14.38;;;1.73;;
21987;SDS011;11158;53.404;-1.510;2024-03-22T10:02:04;15.48;;;2.38;;
21987;SDS011;11158;53.404;-1.510;2024-03-22T10:04:35;9.82;;;1.15;;
21987;SDS011;11158;53.404;-1.510;2024-03-22T10:07:01;15.00;;;1.70;;
21987;SDS011;11158;53.404;-1.510;2024-03-22T10:09:28;13.13;;;2.05;;
21987;SDS011;11158;53.404;-1.510;2024-03-22T10:11:55;14.82;;;1.90;;
21987;SDS011;11158;53.404;-1.510;2024-03-22T10:14:21;17.42;;;2.03;;
21987;SDS011;11158;53.404;-1.510;2024-03-22T10:16:46;12.18;;;1.60;;
21987;SDS011;11158;53.404;-1.510;2024-03-22T10:19:12;14.15;;;1.40;;
21987;SDS011;11158;53.404;-1.510;2024-03-22T10:21:37;16.65;;;1.90;;
21987;SDS011;11158;53.404;-1.510;2024-03-22T10:24:02;7.72;;;1.77;;
21987;SDS011;11158;53.404;-1.510;2024-03-22T10:26:29;13.38;;;1.48;;
21987;SDS011;11158;53.404;-1.510;2024-03-22T10:28:54;10.18;;;1.23;;
21987;SDS011;11158;53.404;-1.510;2024-03-22T10:31:19;7.10;;;1.17;;
21987;SDS011;11158;53.404;-1.510;2024-03-22T10:33:45;7.30;;;0.80;;
21987;SDS011;11158;53.404;-1.510;2024-03-22T10:36:11;10.05;;;1.70;;
21987;SDS011;11158;53.404;-1.510;2024-03-22T10:38:38;15.18;;;1.98;;
21987;SDS011;11158;53.404;-1.510;2024-03-22T10:41:04;9.23;;;1.00;;
21987;SDS011;11158;53.404;-1.510;2024-03-22T10:43:30;12.30;;;1.42;;
21987;SDS011;11158;53.404;-1.510;2024-03-22T10:45:56;9.20;;;1.05;;
21987;SDS011;11158;53.404;-1.510;2024-03-22T10:48:31;7.13;;;1.20;;
21987;SDS011;11158;53.404;-1.510;2024-03-22T10:50:59;7.47;;;0.80;;
21987;SDS011;11158;53.404;-1.510;2024-03-22T10:53:26;8.45;;;1.33;;
21987;SDS011;11158;53.404;-1.510;2024-03-22T10:55:53;11.45;;;1.00;;
21987;SDS011;11158;53.404;-1.510;2024-03-22T10:58:21;6.55;;;1.17;;
21987;SDS011;11158;53.404;-1.510;2024-03-22T11:00:50;16.08;;;1.52;;
21987;SDS011;11158;53.404;-1.510;2024-03-22T11:03:19;6.25;;;1.58;;
21987;SDS011;11158;53.404;-1.510;2024-03-22T11:05:46;9.35;;;1.00;;
21987;SDS011;11158;53.404;-1.510;2024-03-22T11:08:12;5.40;;;1.20;;
21987;SDS011;11158;53.404;-1.510;2024-03-22T11:10:38;10.30;;;1.33;;
21987;SDS011;11158;53.404;-1.510;2024-03-22T11:13:07;14.77;;;1.70;;
21987;SDS011;11158;53.404;-1.510;2024-03-22T11:15:33;8.85;;;1.20;;
21987;SDS011;11158;53.404;-1.510;2024-03-22T11:18:00;8.63;;;1.13;;
21987;SDS011;11158;53.404;-1.510;2024-03-22T11:20:28;10.48;;;1.40;;
21987;SDS011;11158;53.404;-1.510;2024-03-22T11:22:55;7.13;;;1.20;;
21987;SDS011;11158;53.404;-1.510;2024-03-22T11:25:21;9.95;;;1.20;;
21987;SDS011;11158;53.404;-1.510;2024-03-22T11:27:46;6.43;;;1.60;;
21987;SDS011;11158;53.404;-1.510;2024-03-22T11:30:12;11.25;;;1.30;;
21987;SDS011;11158;53.404;-1.510;2024-03-22T11:32:38;13.48;;;2.78;;
21987;SDS011;11158;53.404;-1.510;2024-03-22T11:35:12;13.13;;;1.48;;
21987;SDS011;11158;53.404;-1.510;2024-03-22T11:37:38;7.22;;;1.23;;
21987;SDS011;11158;53.404;-1.510;2024-03-22T11:40:06;7.03;;;0.95;;
21987;SDS011;11158;53.404;-1.510;2024-03-22T11:42:35;4.43;;;1.00;;
21987;SDS011;11158;53.404;-1.510;2024-03-22T11:45:02;10.82;;;1.10;;
21987;SDS011;11158;53.404;-1.510;2024-03-22T11:47:29;12.20;;;1.50;;
21987;SDS011;11158;53.404;-1.510;2024-03-22T11:49:54;8.13;;;1.30;;
21987;SDS011;11158;53.404;-1.510;2024-03-22T11:52:27;9.50;;;1.27;;
21987;SDS011;11158;53.404;-1.510;2024-03-22T11:57:18;4.03;;;0.73;;
21987;SDS011;11158;53.404;-1.510;2024-03-22T11:59:45;5.30;;;0.93;;
21987;SDS011;11158;53.404;-1.510;2024-03-22T12:02:11;6.00;;;1.02;;
21987;SDS011;11158;53.404;-1.510;2024-03-22T12:04:40;12.07;;;1.40;;
21987;SDS011;11158;53.404;-1.510;2024-03-22T12:07:08;4.03;;;0.77;;
21987;SDS011;11158;53.404;-1.510;2024-03-22T12:09:35;9.95;;;1.50;;
21987;SDS011;11158;53.404;-1.510;2024-03-22T12:12:01;12.68;;;1.48;;
21987;SDS011;11158;53.404;-1.510;2024-03-22T12:14:26;8.00;;;0.90;;
21987;SDS011;11158;53.404;-1.510;2024-03-22T12:16:51;11.13;;;1.80;;
21987;SDS011;11158;53.404;-1.510;2024-03-22T12:19:17;10.63;;;1.25;;
21987;SDS011;11158;53.404;-1.510;2024-03-22T12:21:42;10.32;;;1.13;;
21987;SDS011;11158;53.404;-1.510;2024-03-22T12:24:08;9.95;;;1.33;;
21987;SDS011;11158;53.404;-1.510;2024-03-22T12:26:33;12.18;;;2.92;;
21987;SDS011;11158;53.404;-1.510;2024-03-22T12:28:58;8.63;;;1.27;;
21987;SDS011;11158;53.404;-1.510;2024-03-22T12:31:24;8.93;;;1.20;;
21987;SDS011;11158;53.404;-1.510;2024-03-22T12:33:49;4.25;;;0.73;;
21987;SDS011;11158;53.404;-1.510;2024-03-22T12:36:15;11.20;;;1.30;;
21987;SDS011;11158;53.404;-1.510;2024-03-22T12:38:40;7.95;;;0.98;;
21987;SDS011;11158;53.404;-1.510;2024-03-22T12:41:05;3.42;;;0.70;;
21987;SDS011;11158;53.404;-1.510;2024-03-22T12:43:32;8.00;;;1.25;;
21987;SDS011;11158;53.404;-1.510;2024-03-22T12:45:57;9.02;;;1.30;;
21987;SDS011;11158;53.404;-1.510;2024-03-22T12:48:23;6.70;;;1.05;;
21987;SDS011;11158;53.404;-1.510;2024-03-22T12:50:48;6.82;;;0.90;;
21987;SDS011;11158;53.404;-1.510;2024-03-22T12:53:14;5.10;;;0.95;;
21987;SDS011;11158;53.404;-1.510;2024-03-22T12:55:39;7.93;;;1.35;;
21987;SDS011;11158;53.404;-1.510;2024-03-22T12:58:04;6.10;;;0.88;;
21987;SDS011;11158;53.404;-1.510;2024-03-22T13:00:30;7.53;;;1.88;;
21987;SDS011;11158;53.404;-1.510;2024-03-22T13:02:56;3.35;;;0.98;;
21987;SDS011;11158;53.404;-1.510;2024-03-22T13:05:21;7.00;;;1.25;;
21987;SDS011;11158;53.404;-1.510;2024-03-22T13:07:46;6.07;;;1.02;;
21987;SDS011;11158;53.404;-1.510;2024-03-22T13:10:12;8.85;;;1.00;;
21987;SDS011;11158;53.404;-1.510;2024-03-22T13:12:38;7.25;;;1.48;;
21987;SDS011;11158;53.404;-1.510;2024-03-22T13:15:03;8.70;;;1.05;;
21987;SDS011;11158;53.404;-1.510;2024-03-22T13:17:29;6.10;;;0.95;;
21987;SDS011;11158;53.404;-1.510;2024-03-22T13:19:54;9.77;;;1.58;;
21987;SDS011;11158;53.404;-1.510;2024-03-22T13:22:20;6.55;;;1.77;;
21987;SDS011;11158;53.404;-1.510;2024-03-22T13:24:45;7.90;;;1.10;;
21987;SDS011;11158;53.404;-1.510;2024-03-22T13:27:11;9.10;;;1.20;;
21987;SDS011;11158;53.404;-1.510;2024-03-22T13:29:38;6.32;;;0.80;;
21987;SDS011;11158;53.404;-1.510;2024-03-22T13:32:04;3.75;;;0.77;;
21987;SDS011;11158;53.404;-1.510;2024-03-22T13:34:31;2.38;;;0.57;;
21987;SDS011;11158;53.404;-1.510;2024-03-22T13:36:58;7.55;;;1.38;;
21987;SDS011;11158;53.404;-1.510;2024-03-22T13:39:23;8.40;;;1.42;;
21987;SDS011;11158;53.404;-1.510;2024-03-22T13:41:48;7.45;;;0.95;;
21987;SDS011;11158;53.404;-1.510;2024-03-22T13:44:14;6.80;;;1.05;;
21987;SDS011;11158;53.404;-1.510;2024-03-22T13:46:39;9.77;;;1.45;;
21987;SDS011;11158;53.404;-1.510;2024-03-22T13:49:14;9.20;;;1.10;;
21987;SDS011;11158;53.404;-1.510;2024-03-22T13:51:45;5.28;;;1.35;;
21987;SDS011;11158;53.404;-1.510;2024-03-22T13:54:11;7.47;;;1.08;;
21987;SDS011;11158;53.404;-1.510;2024-03-22T13:56:37;14.88;;;1.60;;
21987;SDS011;11158;53.404;-1.510;2024-03-22T13:59:03;11.15;;;1.35;;
21987;SDS011;11158;53.404;-1.510;2024-03-22T14:01:30;8.40;;;1.02;;
21987;SDS011;11158;53.404;-1.510;2024-03-22T14:03:57;6.30;;;1.02;;
21987;SDS011;11158;53.404;-1.510;2024-03-22T14:06:22;7.97;;;1.00;;
21987;SDS011;11158;53.404;-1.510;2024-03-22T14:08:48;6.43;;;0.80;;
21987;SDS011;11158;53.404;-1.510;2024-03-22T14:11:13;7.60;;;1.30;;
21987;SDS011;11158;53.404;-1.510;2024-03-22T14:13:39;5.80;;;2.00;;
21987;SDS011;11158;53.404;-1.510;2024-03-22T14:16:04;11.85;;;1.00;;
21987;SDS011;11158;53.404;-1.510;2024-03-22T14:18:32;9.30;;;1.20;;
21987;SDS011;11158;53.404;-1.510;2024-03-22T14:20:57;10.82;;;1.27;;
21987;SDS011;11158;53.404;-1.510;2024-03-22T14:23:23;7.53;;;1.23;;